Terminal Aerodrome Forecast
Issued by NWS Dallas/Fort Worth, TX

Home | Current Version | Previous Version | Text Only | Print | Product List | Glossary On
Versions: 1 2 3 4 5 6 7 8 9 10 11 12 13 14 15 16 17 18 19 20 21 22 23 24 25 26 27 28 29 30 31 32 33 34 35 36 37 38
000
FTUS44 KFWD 182333
TAFACT
TAF
KACT 182333Z 1900/1924 12008KT P6SM SCT040
     FM190100 16007KT 4SM TSRA BKN030CB BKN050
      TEMPO 1901/1903 VRB20G30KT 2SM TSRA BKN015CB
     FM190400 16005KT P6SM -SHRA BKN030 BKN120
     FM190500 18005KT 6SM BR BKN040
     FM191200 20012KT P6SM BKN025
     FM191700 27020KT P6SM SCT050=

USA.gov is the U.S. government's official web portal to all federal, state and local government web resources and services.